sensor_id;sensor_type;location;lat;lon;timestamp;pressure;altitude;pressure_sealevel;temperature;humidity
77079;BME280;66004;55.096;38.760;2023-08-31T00:01:49;100096.78;;;16.12;69.73
77079;BME280;66004;55.096;38.760;2023-08-31T00:04:14;100105.69;;;16.10;69.95
77079;BME280;66004;55.096;38.760;2023-08-31T00:06:41;100099.81;;;16.00;70.32
77079;BME280;66004;55.096;38.760;2023-08-31T00:09:06;100101.44;;;16.01;70.19
77079;BME280;66004;55.096;38.760;2023-08-31T00:11:37;100095.78;;;16.01;70.57
77079;BME280;66004;55.096;38.760;2023-08-31T00:14:03;100089.66;;;15.99;70.60
77079;BME280;66004;55.096;38.760;2023-08-31T00:16:29;100091.31;;;16.00;70.44
77079;BME280;66004;55.096;38.760;2023-08-31T00:18:56;100096.53;;;15.98;70.26
77079;BME280;66004;55.096;38.760;2023-08-31T00:21:22;100093.25;;;15.95;70.52
77079;BME280;66004;55.096;38.760;2023-08-31T00:23:48;100094.00;;;15.92;70.75
77079;BME280;66004;55.096;38.760;2023-08-31T00:26:14;100089.69;;;15.79;70.32
77079;BME280;66004;55.096;38.760;2023-08-31T00:28:40;100094.75;;;15.89;70.54
77079;BME280;66004;55.096;38.760;2023-08-31T00:31:08;100093.84;;;15.85;70.87
77079;BME280;66004;55.096;38.760;2023-08-31T00:33:34;100077.91;;;15.77;70.85
77079;BME280;66004;55.096;38.760;2023-08-31T00:36:02;100071.78;;;15.75;70.69
77079;BME280;66004;55.096;38.760;2023-08-31T00:38:31;100082.34;;;15.78;70.72
77079;BME280;66004;55.096;38.760;2023-08-31T00:40:57;100091.31;;;15.80;70.75
77079;BME280;66004;55.096;38.760;2023-08-31T00:43:22;100069.94;;;15.67;70.71
77079;BME280;66004;55.096;38.760;2023-08-31T00:45:49;100095.38;;;15.79;70.78
77079;BME280;66004;55.096;38.760;2023-08-31T00:48:17;100088.81;;;15.75;71.11
77079;BME280;66004;55.096;38.760;2023-08-31T00:50:46;100078.47;;;15.67;71.00
77079;BME280;66004;55.096;38.760;2023-08-31T00:53:13;100088.63;;;15.68;71.09
77079;BME280;66004;55.096;38.760;2023-08-31T00:55:39;100091.16;;;15.73;71.26
77079;BME280;66004;55.096;38.760;2023-08-31T00:58:06;100088.31;;;15.73;71.09
77079;BME280;66004;55.096;38.760;2023-08-31T01:00:46;100086.66;;;15.72;71.18
77079;BME280;66004;55.096;38.760;2023-08-31T01:08:39;100083.84;;;15.72;71.17
77079;BME280;66004;55.096;38.760;2023-08-31T01:13:41;100086.22;;;15.70;71.43
77079;BME280;66004;55.096;38.760;2023-08-31T01:16:10;100087.41;;;15.69;71.46
77079;BME280;66004;55.096;38.760;2023-08-31T01:18:39;100089.34;;;15.65;71.51
77079;BME280;66004;55.096;38.760;2023-08-31T01:21:30;100082.06;;;15.64;71.58
77079;BME280;66004;55.096;38.760;2023-08-31T01:24:00;100082.06;;;15.64;71.35
77079;BME280;66004;55.096;38.760;2023-08-31T01:26:27;100081.16;;;15.60;71.55
77079;BME280;66004;55.096;38.760;2023-08-31T01:28:54;100094.94;;;15.61;71.55
77079;BME280;66004;55.096;38.760;2023-08-31T01:31:21;100073.63;;;15.48;71.65
77079;BME280;66004;55.096;38.760;2023-08-31T01:33:47;100091.59;;;15.55;71.79
77079;BME280;66004;55.096;38.760;2023-08-31T01:36:30;100102.19;;;15.58;71.68
77079;BME280;66004;55.096;38.760;2023-08-31T01:39:11;100104.59;;;15.56;71.70
77079;BME280;66004;55.096;38.760;2023-08-31T01:41:40;100108.59;;;15.55;71.84
77079;BME280;66004;55.096;38.760;2023-08-31T01:44:08;100111.84;;;15.54;71.77
77079;BME280;66004;55.096;38.760;2023-08-31T01:46:40;100113.38;;;15.51;71.91
77079;BME280;66004;55.096;38.760;2023-08-31T01:49:05;100089.22;;;15.38;71.84
77079;BME280;66004;55.096;38.760;2023-08-31T01:51:31;100123.09;;;15.50;71.81
77079;BME280;66004;55.096;38.760;2023-08-31T01:53:56;100123.03;;;15.47;71.98
77079;BME280;66004;55.096;38.760;2023-08-31T01:56:23;100122.19;;;15.46;71.83
77079;BME280;66004;55.096;38.760;2023-08-31T01:58:49;100118.16;;;15.47;71.82
77079;BME280;66004;55.096;38.760;2023-08-31T02:01:14;100107.94;;;15.43;71.87
77079;BME280;66004;55.096;38.760;2023-08-31T02:03:40;100101.88;;;15.44;71.96
77079;BME280;66004;55.096;38.760;2023-08-31T02:06:05;100099.38;;;15.39;71.96
77079;BME280;66004;55.096;38.760;2023-08-31T02:08:32;100107.09;;;15.42;72.17
77079;BME280;66004;55.096;38.760;2023-08-31T02:10:57;100116.81;;;15.41;71.92
77079;BME280;66004;55.096;38.760;2023-08-31T02:13:23;100096.53;;;15.39;72.17
77079;BME280;66004;55.096;38.760;2023-08-31T02:15:52;100098.44;;;15.35;72.03
77079;BME280;66004;55.096;38.760;2023-08-31T02:18:18;100086.97;;;15.28;72.27
77079;BME280;66004;55.096;38.760;2023-08-31T02:20:43;100093.53;;;15.32;71.93
77079;BME280;66004;55.096;38.760;2023-08-31T02:23:09;100092.31;;;15.33;72.14
77079;BME280;66004;55.096;38.760;2023-08-31T02:25:35;100084.59;;;15.30;72.40
77079;BME280;66004;55.096;38.760;2023-08-31T02:28:00;100088.59;;;15.29;72.34
77079;BME280;66004;55.096;38.760;2023-08-31T02:30:26;100095.91;;;15.30;72.32
77079;BME280;66004;55.096;38.760;2023-08-31T02:32:51;100099.19;;;15.32;72.09
77079;BME280;66004;55.096;38.760;2023-08-31T02:35:17;100086.53;;;15.26;72.23
77079;BME280;66004;55.096;38.760;2023-08-31T02:37:43;100105.31;;;15.34;72.16
77079;BME280;66004;55.096;38.760;2023-08-31T02:40:08;100100.09;;;15.36;72.27
77079;BME280;66004;55.096;38.760;2023-08-31T02:42:34;100101.75;;;15.37;72.35
77079;BME280;66004;55.096;38.760;2023-08-31T02:45:00;100095.25;;;15.36;72.14
77079;BME280;66004;55.096;38.760;2023-08-31T02:47:25;100086.38;;;15.38;71.83
77079;BME280;66004;55.096;38.760;2023-08-31T02:49:51;100093.69;;;15.39;71.90
77079;BME280;66004;55.096;38.760;2023-08-31T02:52:16;100089.66;;;15.40;71.89
77079;BME280;66004;55.096;38.760;2023-08-31T02:54:42;100075.72;;;15.31;72.04
77079;BME280;66004;55.096;38.760;2023-08-31T02:57:07;100086.38;;;15.38;72.06
77079;BME280;66004;55.096;38.760;2023-08-31T02:59:33;100083.63;;;15.42;71.83
77079;BME280;66004;55.096;38.760;2023-08-31T03:02:04;100096.22;;;15.44;71.90
77079;BME280;66004;55.096;38.760;2023-08-31T03:04:29;100100.25;;;15.43;71.98
77079;BME280;66004;55.096;38.760;2023-08-31T03:06:56;100095.31;;;15.40;71.72
77079;BME280;66004;55.096;38.760;2023-08-31T03:09:21;100100.25;;;15.43;71.67
77079;BME280;66004;55.096;38.760;2023-08-31T03:11:47;100105.16;;;15.46;71.44
77079;BME280;66004;55.096;38.760;2023-08-31T03:14:12;100098.31;;;15.47;71.41
77079;BME280;66004;55.096;38.760;2023-08-31T03:16:38;100110.09;;;15.49;71.63
77079;BME280;66004;55.096;38.760;2023-08-31T03:19:03;100104.88;;;15.51;71.66
77079;BME280;66004;55.096;38.760;2023-08-31T03:21:29;100091.47;;;15.48;71.25
77079;BME280;66004;55.096;38.760;2023-08-31T03:23:54;100088.31;;;15.53;71.57
77079;BME280;66004;55.096;38.760;2023-08-31T03:26:20;100083.53;;;15.57;71.05
77079;BME280;66004;55.096;38.760;2023-08-31T03:28:45;100085.19;;;15.58;71.20
77079;BME280;66004;55.096;38.760;2023-08-31T03:31:11;100092.50;;;15.60;71.28
77079;BME280;66004;55.096;38.760;2023-08-31T03:33:36;100099.88;;;15.64;71.13
77079;BME280;66004;55.096;38.760;2023-08-31T03:36:03;100100.78;;;15.68;71.08
77079;BME280;66004;55.096;38.760;2023-08-31T03:38:31;100091.91;;;15.70;70.93
77079;BME280;66004;55.096;38.760;2023-08-31T03:40:57;100102.50;;;15.73;70.90
77079;BME280;66004;55.096;38.760;2023-08-31T03:43:23;100100.97;;;15.75;70.67
77079;BME280;66004;55.096;38.760;2023-08-31T03:45:48;100109.19;;;15.81;70.72
77079;BME280;66004;55.096;38.760;2023-08-31T03:48:14;100109.25;;;15.84;70.67
77079;BME280;66004;55.096;38.760;2023-08-31T03:50:40;100105.72;;;15.91;70.46
77079;BME280;66004;55.096;38.760;2023-08-31T03:53:05;100109.44;;;15.95;70.25
77079;BME280;66004;55.096;38.760;2023-08-31T03:55:31;100111.91;;;15.96;70.13
77079;BME280;66004;55.096;38.760;2023-08-31T03:57:56;100120.13;;;16.02;70.15
77079;BME280;66004;55.096;38.760;2023-08-31T04:00:21;100126.84;;;16.13;70.27
77079;BME280;66004;55.096;38.760;2023-08-31T04:02:47;100122.47;;;16.19;69.80
77079;BME280;66004;55.096;38.760;2023-08-31T04:05:12;100098.44;;;16.13;69.57
77079;BME280;66004;55.096;38.760;2023-08-31T04:07:40;100105.88;;;16.21;69.76
77079;BME280;66004;55.096;38.760;2023-08-31T04:10:06;100112.59;;;16.32;69.30
77079;BME280;66004;55.096;38.760;2023-08-31T04:12:33;100111.97;;;16.43;69.18
77079;BME280;66004;55.096;38.760;2023-08-31T04:14:59;100107.25;;;16.50;69.07
77079;BME280;66004;55.096;38.760;2023-08-31T04:17:25;100113.41;;;16.56;69.17
77079;BME280;66004;55.096;38.760;2023-08-31T04:19:51;100101.63;;;16.54;68.71
77079;BME280;66004;55.096;38.760;2023-08-31T04:22:16;100111.91;;;16.62;68.46
77079;BME280;66004;55.096;38.760;2023-08-31T04:24:42;100114.41;;;16.67;68.29
77079;BME280;66004;55.096;38.760;2023-08-31T04:27:07;100121.41;;;16.73;68.05
77079;BME280;66004;55.096;38.760;2023-08-31T04:29:33;100121.91;;;16.79;68.09
77079;BME280;66004;55.096;38.760;2023-08-31T04:31:59;100119.16;;;16.83;67.65
77079;BME280;66004;55.096;38.760;2023-08-31T04:34:24;100117.03;;;16.80;67.34
77079;BME280;66004;55.096;38.760;2023-08-31T04:36:49;100132.16;;;16.84;67.24
77079;BME280;66004;55.096;38.760;2023-08-31T04:39:15;100135.75;;;16.81;67.11
77079;BME280;66004;55.096;38.760;2023-08-31T04:41:41;100140.22;;;16.82;67.18
77079;BME280;66004;55.096;38.760;2023-08-31T04:44:06;100137.09;;;16.87;67.08
77079;BME280;66004;55.096;38.760;2023-08-31T04:46:31;100140.88;;;16.95;66.84
77079;BME280;66004;55.096;38.760;2023-08-31T04:48:59;100142.63;;;17.03;66.75
77079;BME280;66004;55.096;38.760;2023-08-31T04:51:32;100156.13;;;17.09;66.01
77079;BME280;66004;55.096;38.760;2023-08-31T04:53:58;100161.94;;;17.17;66.32
77079;BME280;66004;55.096;38.760;2023-08-31T04:56:24;100158.34;;;17.23;66.08
77079;BME280;66004;55.096;38.760;2023-08-31T04:58:49;100162.59;;;17.33;65.80
77079;BME280;66004;55.096;38.760;2023-08-31T05:01:15;100167.16;;;17.41;65.97
77079;BME280;66004;55.096;38.760;2023-08-31T05:03:41;100172.19;;;17.51;65.74
77079;BME280;66004;55.096;38.760;2023-08-31T05:06:07;100171.41;;;17.55;65.30
77079;BME280;66004;55.096;38.760;2023-08-31T05:08:33;100174.13;;;17.74;64.64
77079;BME280;66004;55.096;38.760;2023-08-31T05:10:59;100174.41;;;17.92;64.38
77079;BME280;66004;55.096;38.760;2023-08-31T05:13:24;100170.50;;;18.07;64.39
77079;BME280;66004;55.096;38.760;2023-08-31T05:15:50;100177.53;;;18.17;63.54
77079;BME280;66004;55.096;38.760;2023-08-31T05:18:15;100189.44;;;18.26;63.18
77079;BME280;66004;55.096;38.760;2023-08-31T05:20:44;100189.44;;;18.26;63.06
77079;BME280;66004;55.096;38.760;2023-08-31T05:23:10;100207.47;;;18.38;62.90
77079;BME280;66004;55.096;38.760;2023-08-31T05:25:36;100197.81;;;18.46;62.41
77079;BME280;66004;55.096;38.760;2023-08-31T05:28:01;100204.38;;;18.50;62.49
77079;BME280;66004;55.096;38.760;2023-08-31T05:30:28;100193.81;;;18.54;62.15
77079;BME280;66004;55.096;38.760;2023-08-31T05:32:54;100196.44;;;18.74;62.35
77079;BME280;66004;55.096;38.760;2023-08-31T05:35:19;100193.00;;;18.91;61.84
77079;BME280;66004;55.096;38.760;2023-08-31T05:37:45;100193.03;;;18.98;61.95
77079;BME280;66004;55.096;38.760;2023-08-31T05:40:10;100199.22;;;19.08;61.52
77079;BME280;66004;55.096;38.760;2023-08-31T05:42:36;100177.72;;;19.14;61.48
77079;BME280;66004;55.096;38.760;2023-08-31T05:45:02;100188.91;;;19.40;60.80
77079;BME280;66004;55.096;38.760;2023-08-31T05:47:27;100188.25;;;19.65;60.20
77079;BME280;66004;55.096;38.760;2023-08-31T05:49:53;100175.34;;;19.93;59.19
77079;BME280;66004;55.096;38.760;2023-08-31T05:52:18;100173.88;;;20.35;58.16
77079;BME280;66004;55.096;38.760;2023-08-31T05:54:44;100190.25;;;20.59;57.47
77079;BME280;66004;55.096;38.760;2023-08-31T05:57:09;100171.03;;;20.53;57.63
77079;BME280;66004;55.096;38.760;2023-08-31T05:59:35;100169.84;;;20.57;56.94
77079;BME280;66004;55.096;38.760;2023-08-31T06:02:00;100177.63;;;20.68;57.12
77079;BME280;66004;55.096;38.760;2023-08-31T06:04:26;100180.09;;;20.73;57.09
77079;BME280;66004;55.096;38.760;2023-08-31T06:06:51;100178.44;;;20.72;57.26
77079;BME280;66004;55.096;38.760;2023-08-31T06:09:19;100178.91;;;20.99;56.59
77079;BME280;66004;55.096;38.760;2023-08-31T06:11:45;100170.72;;;21.05;56.19
77079;BME280;66004;55.096;38.760;2023-08-31T06:14:11;100162.94;;;21.16;56.32
77079;BME280;66004;55.096;38.760;2023-08-31T06:16:36;100174.41;;;21.23;55.34
77079;BME280;66004;55.096;38.760;2023-08-31T06:19:02;100171.53;;;21.45;54.90
77079;BME280;66004;55.096;38.760;2023-08-31T06:21:28;100173.91;;;21.71;54.09
77079;BME280;66004;55.096;38.760;2023-08-31T06:23:54;100173.78;;;22.07;53.78
77079;BME280;66004;55.096;38.760;2023-08-31T06:26:19;100181.03;;;22.37;52.41
77079;BME280;66004;55.096;38.760;2023-08-31T06:28:45;100182.59;;;22.52;52.36
77079;BME280;66004;55.096;38.760;2023-08-31T06:31:10;100188.66;;;22.62;51.91
77079;BME280;66004;55.096;38.760;2023-08-31T06:33:36;100185.75;;;22.72;51.89
77079;BME280;66004;55.096;38.760;2023-08-31T06:36:01;100191.31;;;22.90;51.18
77079;BME280;66004;55.096;38.760;2023-08-31T06:38:26;100179.78;;;23.05;51.51
77079;BME280;66004;55.096;38.760;2023-08-31T06:40:52;100140.19;;;22.82;50.77
77079;BME280;66004;55.096;38.760;2023-08-31T06:43:24;100186.31;;;23.02;51.35
77079;BME280;66004;55.096;38.760;2023-08-31T06:45:52;100183.94;;;22.93;51.02
77079;BME280;66004;55.096;38.760;2023-08-31T06:48:18;100172.16;;;22.80;51.39
77079;BME280;66004;55.096;38.760;2023-08-31T06:50:43;100175.03;;;22.80;52.13
77079;BME280;66004;55.096;38.760;2023-08-31T06:53:09;100171.66;;;22.92;51.98
77079;BME280;66004;55.096;38.760;2023-08-31T06:55:34;100165.00;;;23.03;51.84
77079;BME280;66004;55.096;38.760;2023-08-31T06:58:01;100169.94;;;23.02;51.58
77079;BME280;66004;55.096;38.760;2023-08-31T07:00:28;100161.84;;;22.86;52.08
77079;BME280;66004;55.096;38.760;2023-08-31T07:02:53;100161.91;;;22.79;52.60
77079;BME280;66004;55.096;38.760;2023-08-31T07:05:19;100175.94;;;22.70;51.78
77079;BME280;66004;55.096;38.760;2023-08-31T07:07:53;100186.25;;;22.57;51.94
77079;BME280;66004;55.096;38.760;2023-08-31T07:10:22;100188.28;;;22.60;52.18
77079;BME280;66004;55.096;38.760;2023-08-31T07:12:47;100185.38;;;22.67;51.62
77079;BME280;66004;55.096;38.760;2023-08-31T07:15:13;100199.28;;;22.68;51.64
77079;BME280;66004;55.096;38.760;2023-08-31T07:17:38;100196.44;;;22.68;51.64
77079;BME280;66004;55.096;38.760;2023-08-31T07:20:04;100183.72;;;22.66;51.58
77079;BME280;66004;55.096;38.760;2023-08-31T07:22:34;100191.84;;;22.78;51.05
77079;BME280;66004;55.096;38.760;2023-08-31T07:25:00;100189.75;;;22.82;51.26
77079;BME280;66004;55.096;38.760;2023-08-31T07:27:25;100183.16;;;22.92;51.63
77079;BME280;66004;55.096;38.760;2023-08-31T07:29:54;100187.16;;;23.06;51.64
77079;BME280;66004;55.096;38.760;2023-08-31T07:32:19;100190.38;;;23.15;51.54
77079;BME280;66004;55.096;38.760;2023-08-31T07:34:45;100172.28;;;23.18;51.14
77079;BME280;66004;55.096;38.760;2023-08-31T07:37:11;100185.75;;;23.28;50.62
77079;BME280;66004;55.096;38.760;2023-08-31T07:39:36;100191.09;;;23.26;50.97
77079;BME280;66004;55.096;38.760;2023-08-31T07:42:02;100188.22;;;23.26;50.56
77079;BME280;66004;55.096;38.760;2023-08-31T07:44:27;100174.34;;;23.18;50.25
77079;BME280;66004;55.096;38.760;2023-08-31T07:46:53;100193.97;;;23.26;50.27
77079;BME280;66004;55.096;38.760;2023-08-31T07:49:18;100202.47;;;23.33;50.82
77079;BME280;66004;55.096;38.760;2023-08-31T07:51:44;100195.06;;;23.40;50.11
77079;BME280;66004;55.096;38.760;2023-08-31T07:54:09;100195.84;;;23.44;50.15
77079;BME280;66004;55.096;38.760;2023-08-31T07:56:35;100190.88;;;23.48;49.84
77079;BME280;66004;55.096;38.760;2023-08-31T07:59:00;100195.75;;;23.55;49.96
77079;BME280;66004;55.096;38.760;2023-08-31T08:01:25;100193.69;;;23.55;50.28
77079;BME280;66004;55.096;38.760;2023-08-31T08:03:51;100203.03;;;23.63;49.63
77079;BME280;66004;55.096;38.760;2023-08-31T08:06:19;100186.59;;;23.63;50.09
77079;BME280;66004;55.096;38.760;2023-08-31T08:08:44;100191.50;;;23.66;49.26
77079;BME280;66004;55.096;38.760;2023-08-31T08:11:10;100186.59;;;23.63;49.16
77079;BME280;66004;55.096;38.760;2023-08-31T08:13:35;100204.53;;;23.75;49.10
77079;BME280;66004;55.096;38.760;2023-08-31T08:16:01;100206.19;;;23.76;49.38
77079;BME280;66004;55.096;38.760;2023-08-31T08:18:26;100206.19;;;23.79;49.17
77079;BME280;66004;55.096;38.760;2023-08-31T08:20:52;100196.25;;;23.84;49.51
77079;BME280;66004;55.096;38.760;2023-08-31T08:23:18;100200.22;;;23.97;49.40
77079;BME280;66004;55.096;38.760;2023-08-31T08:25:43;100197.69;;;24.03;49.22
77079;BME280;66004;55.096;38.760;2023-08-31T08:28:09;100194.38;;;24.04;49.18
77079;BME280;66004;55.096;38.760;2023-08-31T08:30:34;100204.19;;;24.07;48.65
77079;BME280;66004;55.096;38.760;2023-08-31T08:33:00;100198.38;;;24.14;48.00
77079;BME280;66004;55.096;38.760;2023-08-31T08:35:25;100195.91;;;24.13;47.63
77079;BME280;66004;55.096;38.760;2023-08-31T08:37:52;100199.97;;;24.19;47.42
77079;BME280;66004;55.096;38.760;2023-08-31T08:40:18;100190.06;;;24.20;47.66
77079;BME280;66004;55.096;38.760;2023-08-31T08:42:46;100202.25;;;24.31;47.06
77079;BME280;66004;55.096;38.760;2023-08-31T08:45:15;100192.69;;;24.41;47.08
77079;BME280;66004;55.096;38.760;2023-08-31T08:47:43;100183.13;;;24.48;47.12
77079;BME280;66004;55.096;38.760;2023-08-31T08:50:12;100177.34;;;24.52;46.56
77079;BME280;66004;55.096;38.760;2023-08-31T08:52:39;100175.28;;;24.52;46.92
77079;BME280;66004;55.096;38.760;2023-08-31T08:55:06;100185.63;;;24.46;46.30
77079;BME280;66004;55.096;38.760;2023-08-31T08:57:32;100181.59;;;24.40;46.24
77079;BME280;66004;55.096;38.760;2023-08-31T08:59:58;100171.66;;;24.44;46.48
77079;BME280;66004;55.096;38.760;2023-08-31T09:02:24;100177.34;;;24.52;46.67
77079;BME280;66004;55.096;38.760;2023-08-31T09:04:49;100158.34;;;24.58;46.69
77079;BME280;66004;55.096;38.760;2023-08-31T09:07:22;100163.91;;;24.72;46.39
77079;BME280;66004;55.096;38.760;2023-08-31T09:09:53;100179.41;;;24.78;45.82
77079;BME280;66004;55.096;38.760;2023-08-31T09:12:22;100178.94;;;24.83;46.01
77079;BME280;66004;55.096;38.760;2023-08-31T09:15:01;100184.22;;;24.89;45.67
77079;BME280;66004;55.096;38.760;2023-08-31T09:17:40;100179.19;;;24.93;45.14
77079;BME280;66004;55.096;38.760;2023-08-31T09:20:07;100158.69;;;24.91;44.84
77079;BME280;66004;55.096;38.760;2023-08-31T09:22:35;100169.19;;;25.01;44.54
77079;BME280;66004;55.096;38.760;2023-08-31T09:25:01;100172.31;;;25.10;44.70
77079;BME280;66004;55.096;38.760;2023-08-31T09:27:26;100171.47;;;25.13;45.14
77079;BME280;66004;55.096;38.760;2023-08-31T09:29:58;100168.06;;;25.18;44.44
77079;BME280;66004;55.096;38.760;2023-08-31T09:32:23;100147.28;;;25.07;44.17
77079;BME280;66004;55.096;38.760;2023-08-31T09:34:52;100166.44;;;25.17;44.22
77079;BME280;66004;55.096;38.760;2023-08-31T09:37:20;100172.50;;;25.27;43.94
77079;BME280;66004;55.096;38.760;2023-08-31T09:39:45;100167.84;;;25.33;43.63
77079;BME280;66004;55.096;38.760;2023-08-31T09:42:11;100171.09;;;25.35;43.59
77079;BME280;66004;55.096;38.760;2023-08-31T09:44:41;100167.34;;;25.38;43.38
77079;BME280;66004;55.096;38.760;2023-08-31T09:47:08;100184.25;;;25.36;43.31
77079;BME280;66004;55.096;38.760;2023-08-31T09:49:35;100183.53;;;25.32;42.00
77079;BME280;66004;55.096;38.760;2023-08-31T09:52:03;100182.00;;;25.23;42.05
77079;BME280;66004;55.096;38.760;2023-08-31T09:54:30;100184.38;;;25.29;42.41
77079;BME280;66004;55.096;38.760;2023-08-31T09:56:58;100188.38;;;25.35;42.82
77079;BME280;66004;55.096;38.760;2023-08-31T09:59:26;100177.59;;;25.39;43.37
77079;BME280;66004;55.096;38.760;2023-08-31T10:01:52;100170.22;;;25.38;43.38
77079;BME280;66004;55.096;38.760;2023-08-31T10:04:21;100174.59;;;25.46;42.87
77079;BME280;66004;55.096;38.760;2023-08-31T10:06:48;100165.97;;;25.46;43.11
77079;BME280;66004;55.096;38.760;2023-08-31T10:09:14;100169.09;;;25.55;43.26
77079;BME280;66004;55.096;38.760;2023-08-31T10:11:40;100182.09;;;25.63;43.21
77079;BME280;66004;55.096;38.760;2023-08-31T10:14:09;100165.69;;;25.60;42.99
77079;BME280;66004;55.096;38.760;2023-08-31T10:16:39;100166.44;;;25.64;42.51
77079;BME280;66004;55.096;38.760;2023-08-31T10:19:04;100177.97;;;25.64;42.18
77079;BME280;66004;55.096;38.760;2023-08-31T10:21:30;100172.06;;;25.72;42.60
77079;BME280;66004;55.096;38.760;2023-08-31T10:23:55;100159.75;;;25.71;42.63
77079;BME280;66004;55.096;38.760;2023-08-31T10:28:51;100179.06;;;25.94;42.56
77079;BME280;66004;55.096;38.760;2023-08-31T10:31:17;100175.81;;;25.92;42.65
77079;BME280;66004;55.096;38.760;2023-08-31T10:33:57;100180.66;;;25.95;42.42
77079;BME280;66004;55.096;38.760;2023-08-31T10:36:55;100169.28;;;25.88;42.78
77079;BME280;66004;55.096;38.760;2023-08-31T10:39:20;100173.41;;;25.87;42.98
77079;BME280;66004;55.096;38.760;2023-08-31T10:41:53;100169.28;;;25.88;43.10
77079;BME280;66004;55.096;38.760;2023-08-31T10:44:23;100168.00;;;25.89;43.43
77079;BME280;66004;55.096;38.760;2023-08-31T10:46:50;100165.81;;;25.97;43.33
77079;BME280;66004;55.096;38.760;2023-08-31T10:49:18;100168.25;;;25.98;43.02
77079;BME280;66004;55.096;38.760;2023-08-31T17:50:15;100043.72;;;22.99;52.99
77079;BME280;66004;55.096;38.760;2023-08-31T17:52:41;100044.56;;;22.96;53.10
77079;BME280;66004;55.096;38.760;2023-08-31T17:55:06;100050.75;;;22.90;52.64
77079;BME280;66004;55.096;38.760;2023-08-31T17:57:32;100047.91;;;22.90;53.05
77079;BME280;66004;55.096;38.760;2023-08-31T17:59:57;100045.13;;;22.83;53.10
77079;BME280;66004;55.096;38.760;2023-08-31T18:02:23;100042.31;;;22.76;53.44
77079;BME280;66004;55.096;38.760;2023-08-31T18:04:49;100041.94;;;22.74;53.03
77079;BME280;66004;55.096;38.760;2023-08-31T18:07:15;100055.41;;;22.77;53.44
77079;BME280;66004;55.096;38.760;2023-08-31T18:09:40;100059.53;;;22.76;53.45
77079;BME280;66004;55.096;38.760;2023-08-31T18:12:07;100062.00;;;22.74;53.89
77079;BME280;66004;55.096;38.760;2023-08-31T18:14:34;100061.22;;;22.70;53.91
77079;BME280;66004;55.096;38.760;2023-08-31T18:17:00;100057.53;;;22.66;53.53
77079;BME280;66004;55.096;38.760;2023-08-31T18:19:25;100059.63;;;22.62;53.71
77079;BME280;66004;55.096;38.760;2023-08-31T18:21:56;100060.50;;;22.59;54.13
77079;BME280;66004;55.096;38.760;2023-08-31T18:24:22;100048.72;;;22.46;54.39
77079;BME280;66004;55.096;38.760;2023-08-31T18:26:48;100062.16;;;22.52;54.02
77079;BME280;66004;55.096;38.760;2023-08-31T18:29:13;100074.50;;;22.49;54.50
77079;BME280;66004;55.096;38.760;2023-08-31T18:31:39;100076.59;;;22.45;54.20
77079;BME280;66004;55.096;38.760;2023-08-31T18:34:07;100070.03;;;22.41;54.68
77079;BME280;66004;55.096;38.760;2023-08-31T18:36:32;100073.75;;;22.38;54.35
77079;BME280;66004;55.096;38.760;2023-08-31T18:38:58;100067.69;;;22.29;54.27
77079;BME280;66004;55.096;38.760;2023-08-31T18:41:24;100067.28;;;22.27;54.33
77079;BME280;66004;55.096;38.760;2023-08-31T18:43:49;100063.16;;;22.28;54.87
77079;BME280;66004;55.096;38.760;2023-08-31T18:46:15;100059.09;;;22.25;54.96
77079;BME280;66004;55.096;38.760;2023-08-31T18:48:40;100060.78;;;22.15;54.88
77079;BME280;66004;55.096;38.760;2023-08-31T18:51:06;100058.72;;;22.20;55.10
77079;BME280;66004;55.096;38.760;2023-08-31T18:53:31;100059.94;;;22.19;55.21
77079;BME280;66004;55.096;38.760;2023-08-31T18:56:01;100063.22;;;22.17;54.86
77079;BME280;66004;55.096;38.760;2023-08-31T18:58:29;100058.75;;;22.12;54.65
77079;BME280;66004;55.096;38.760;2023-08-31T19:00:56;100065.31;;;22.09;55.21
77079;BME280;66004;55.096;38.760;2023-08-31T19:03:28;100069.41;;;22.08;55.30
77079;BME280;66004;55.096;38.760;2023-08-31T19:05:54;100063.31;;;22.03;55.26
77079;BME280;66004;55.096;38.760;2023-08-31T19:08:21;100070.69;;;22.00;55.52
77079;BME280;66004;55.096;38.760;2023-08-31T19:10:46;100079.72;;;21.99;55.55
77079;BME280;66004;55.096;38.760;2023-08-31T19:13:12;100061.75;;;21.91;55.17
77079;BME280;66004;55.096;38.760;2023-08-31T19:15:37;100076.47;;;21.93;55.22
77079;BME280;66004;55.096;38.760;2023-08-31T19:18:04;100078.94;;;21.91;55.75
77079;BME280;66004;55.096;38.760;2023-08-31T19:20:32;100073.22;;;21.87;55.31
77079;BME280;66004;55.096;38.760;2023-08-31T19:22:58;100070.78;;;21.82;55.63
77079;BME280;66004;55.096;38.760;2023-08-31T19:25:25;100082.66;;;21.81;55.78
77079;BME280;66004;55.096;38.760;2023-08-31T19:28:01;100079.41;;;21.78;56.00
77079;BME280;66004;55.096;38.760;2023-08-31T19:30:27;100072.88;;;21.71;55.87
77079;BME280;66004;55.096;38.760;2023-08-31T19:32:53;100078.22;;;21.69;55.75
77079;BME280;66004;55.096;38.760;2023-08-31T19:35:18;100082.28;;;21.71;56.19
77079;BME280;66004;55.096;38.760;2023-08-31T19:37:46;100073.72;;;21.64;56.25
77079;BME280;66004;55.096;38.760;2023-08-31T19:40:18;100085.59;;;21.66;55.97
77079;BME280;66004;55.096;38.760;2023-08-31T19:42:45;100092.53;;;21.65;55.92
77079;BME280;66004;55.096;38.760;2023-08-31T19:45:11;100071.72;;;21.54;56.37
77079;BME280;66004;55.096;38.760;2023-08-31T19:47:37;100086.44;;;21.56;56.22